createdAt,value
2019-05-05T00:04:00.000Z,97745
2019-05-05T00:09:00.000Z,97757
2019-05-05T00:14:00.000Z,97757
2019-05-05T00:19:00.000Z,97774
2019-05-05T00:24:00.000Z,97763
2019-05-05T00:29:00.000Z,97770
2019-05-05T00:34:00.000Z,97767
2019-05-05T00:39:00.000Z,97775
2019-05-05T00:44:00.000Z,97800
2019-05-05T00:49:00.000Z,97792
2019-05-05T00:54:00.000Z,97801
2019-05-05T00:59:00.000Z,97809
2019-05-05T01:04:00.000Z,97803
2019-05-05T01:09:00.000Z,97816
2019-05-05T01:14:00.000Z,97815
2019-05-05T01:19:00.000Z,97819
2019-05-05T01:25:00.000Z,97834
2019-05-05T01:30:00.000Z,97838
2019-05-05T01:35:00.000Z,97835
2019-05-05T01:40:00.000Z,97836
2019-05-05T01:45:00.000Z,97833
2019-05-05T01:50:00.000Z,97841
2019-05-05T01:55:00.000Z,97833
2019-05-05T02:00:00.000Z,97842
2019-05-05T02:05:00.000Z,97843
2019-05-05T02:10:00.000Z,97843
2019-05-05T02:15:00.000Z,97840
2019-05-05T02:20:00.000Z,97845
2019-05-05T02:25:00.000Z,97847
2019-05-05T02:30:00.000Z,97855
2019-05-05T02:35:00.000Z,97857
2019-05-05T02:40:00.000Z,97845
2019-05-05T02:45:00.000Z,97862
2019-05-05T02:50:00.000Z,97864
2019-05-05T02:56:00.000Z,97870
2019-05-05T03:01:00.000Z,97871
2019-05-05T03:06:00.000Z,97888
2019-05-05T03:11:00.000Z,97890
2019-05-05T03:16:00.000Z,97912
2019-05-05T03:21:00.000Z,97900
2019-05-05T03:26:00.000Z,97901
2019-05-05T03:31:00.000Z,97907
2019-05-05T03:36:00.000Z,97919
2019-05-05T03:41:00.000Z,97930
2019-05-05T03:46:00.000Z,97930
2019-05-05T03:51:00.000Z,97940
2019-05-05T03:56:00.000Z,97946
2019-05-05T04:01:00.000Z,97944
2019-05-05T04:06:00.000Z,97950
2019-05-05T04:11:00.000Z,97950
2019-05-05T04:16:00.000Z,97977
2019-05-05T04:21:00.000Z,97959
2019-05-05T04:26:00.000Z,97982
2019-05-05T04:31:00.000Z,98001
2019-05-05T04:36:00.000Z,97995
2019-05-05T04:41:00.000Z,97999
2019-05-05T04:46:00.000Z,98013
2019-05-05T04:51:00.000Z,98020
2019-05-05T04:56:00.000Z,98039
2019-05-05T05:01:00.000Z,98030
2019-05-05T05:06:00.000Z,98052
2019-05-05T05:11:00.000Z,98057
2019-05-05T05:16:00.000Z,98057
2019-05-05T05:21:00.000Z,98073
2019-05-05T05:27:00.000Z,98072
2019-05-05T05:32:00.000Z,98081
2019-05-05T05:37:00.000Z,98083
2019-05-05T05:42:00.000Z,98086
2019-05-05T05:47:00.000Z,98095
2019-05-05T05:52:00.000Z,98098
2019-05-05T05:57:00.000Z,98096
2019-05-05T06:02:00.000Z,98101
2019-05-05T06:07:00.000Z,98117
2019-05-05T06:12:00.000Z,98095
2019-05-05T06:17:00.000Z,98112
2019-05-05T06:22:00.000Z,98125
2019-05-05T06:27:00.000Z,98136
2019-05-05T06:32:00.000Z,98130
2019-05-05T06:37:00.000Z,98138
2019-05-05T06:42:00.000Z,98143
2019-05-05T06:47:00.000Z,98143
2019-05-05T06:52:00.000Z,98152
2019-05-05T06:57:00.000Z,98149
2019-05-05T07:02:00.000Z,98146
2019-05-05T07:07:00.000Z,98171
2019-05-05T07:12:00.000Z,98170
2019-05-05T07:17:00.000Z,98169
2019-05-05T07:22:00.000Z,98162
2019-05-05T07:28:00.000Z,98170
2019-05-05T07:33:00.000Z,98176
2019-05-05T07:38:00.000Z,98183
2019-05-05T07:43:00.000Z,98184
2019-05-05T07:48:00.000Z,98181
2019-05-05T07:53:00.000Z,98186
2019-05-05T07:58:00.000Z,98191
2019-05-05T08:03:00.000Z,98198
2019-05-05T08:08:00.000Z,98188
2019-05-05T08:13:00.000Z,98196
2019-05-05T08:18:00.000Z,98202
2019-05-05T08:23:00.000Z,98209
2019-05-05T08:28:00.000Z,98194
2019-05-05T08:33:00.000Z,98197
2019-05-05T08:38:00.000Z,98205
2019-05-05T08:43:00.000Z,98212
2019-05-05T08:48:00.000Z,98214
2019-05-05T08:53:00.000Z,98209
2019-05-05T08:58:00.000Z,98214
2019-05-05T09:03:00.000Z,98218
2019-05-05T09:08:00.000Z,98206
2019-05-05T09:13:00.000Z,98202
2019-05-05T09:18:00.000Z,98204
2019-05-05T09:23:00.000Z,98192
2019-05-05T09:29:00.000Z,98201
2019-05-05T09:34:00.000Z,98205
2019-05-05T09:39:00.000Z,98206
2019-05-05T09:44:00.000Z,98205
2019-05-05T09:49:00.000Z,98215
2019-05-05T09:54:00.000Z,98221
2019-05-05T09:59:00.000Z,98218
2019-05-05T10:04:00.000Z,98229
2019-05-05T10:09:00.000Z,98218
2019-05-05T10:14:00.000Z,98231
2019-05-05T10:19:00.000Z,98229
2019-05-05T10:24:00.000Z,98243
2019-05-05T10:29:00.000Z,98241
2019-05-05T10:34:00.000Z,98233
2019-05-05T10:39:00.000Z,98240
2019-05-05T10:44:00.000Z,98243
2019-05-05T10:49:00.000Z,98235
2019-05-05T10:54:00.000Z,98227
2019-05-05T10:59:00.000Z,98236
2019-05-05T11:04:00.000Z,98241
2019-05-05T11:09:00.000Z,98235
2019-05-05T11:14:00.000Z,98237
2019-05-05T11:19:00.000Z,98242
2019-05-05T11:24:00.000Z,98251
2019-05-05T11:30:00.000Z,98245
2019-05-05T11:35:00.000Z,98251
2019-05-05T11:40:00.000Z,98257
2019-05-05T11:45:00.000Z,98263
2019-05-05T11:50:00.000Z,98264
2019-05-05T11:55:00.000Z,98265
2019-05-05T12:00:00.000Z,98273
2019-05-05T12:05:00.000Z,98267
2019-05-05T12:10:00.000Z,98276
2019-05-05T12:15:00.000Z,98286
2019-05-05T12:20:00.000Z,98286
2019-05-05T12:25:00.000Z,98292
2019-05-05T12:30:00.000Z,98305
2019-05-05T12:35:00.000Z,98295
2019-05-05T12:40:00.000Z,98300
2019-05-05T12:45:00.000Z,98294
2019-05-05T12:50:00.000Z,98298
2019-05-05T12:55:00.000Z,98286
2019-05-05T13:00:00.000Z,98291
2019-05-05T13:05:00.000Z,98301
2019-05-05T13:10:00.000Z,98299
2019-05-05T13:15:00.000Z,98299
2019-05-05T13:20:00.000Z,98303
2019-05-05T13:25:00.000Z,98305
2019-05-05T13:30:00.000Z,98302
2019-05-05T13:36:00.000Z,98305
2019-05-05T13:41:00.000Z,98317
2019-05-05T13:46:00.000Z,98321
2019-05-05T13:51:00.000Z,98307
2019-05-05T13:56:00.000Z,98312
2019-05-05T14:01:00.000Z,98308
2019-05-05T14:06:00.000Z,98320
2019-05-05T14:11:00.000Z,98317
2019-05-05T14:16:00.000Z,98321
2019-05-05T14:21:00.000Z,98330
2019-05-05T14:26:00.000Z,98334
2019-05-05T14:31:00.000Z,98328
2019-05-05T14:36:00.000Z,98338
2019-05-05T14:41:00.000Z,98330
2019-05-05T14:46:00.000Z,98329
2019-05-05T14:51:00.000Z,98336
2019-05-05T14:56:00.000Z,98348
2019-05-05T15:01:00.000Z,98333
2019-05-05T15:06:00.000Z,98334
2019-05-05T15:11:00.000Z,98344
2019-05-05T15:16:00.000Z,98346
2019-05-05T15:21:00.000Z,98351
2019-05-05T15:26:00.000Z,98355
2019-05-05T15:31:00.000Z,98340
2019-05-05T15:36:00.000Z,98346
2019-05-05T15:41:00.000Z,98331
2019-05-05T15:46:00.000Z,98341
2019-05-05T15:51:00.000Z,98333
2019-05-05T15:56:00.000Z,98334
2019-05-05T16:02:00.000Z,98345
2019-05-05T16:07:00.000Z,98344
2019-05-05T16:12:00.000Z,98328
2019-05-05T16:17:00.000Z,98341
2019-05-05T16:22:00.000Z,98345
2019-05-05T16:27:00.000Z,98358
2019-05-05T16:32:00.000Z,98342
2019-05-05T16:37:00.000Z,98354
2019-05-05T16:42:00.000Z,98345
2019-05-05T16:47:00.000Z,98333
2019-05-05T16:52:00.000Z,98351
2019-05-05T16:57:00.000Z,98353
2019-05-05T17:02:00.000Z,98350
2019-05-05T17:07:00.000Z,98344
2019-05-05T17:12:00.000Z,98352
2019-05-05T17:17:00.000Z,98356
2019-05-05T17:22:00.000Z,98359
2019-05-05T17:27:00.000Z,98367
2019-05-05T17:32:00.000Z,98370
2019-05-05T17:37:00.000Z,98379
2019-05-05T17:42:00.000Z,98379
2019-05-05T17:47:00.000Z,98387
2019-05-05T17:52:00.000Z,98386
2019-05-05T17:58:00.000Z,98394
2019-05-05T18:03:00.000Z,98382
2019-05-05T18:08:00.000Z,98393
2019-05-05T18:13:00.000Z,98407
2019-05-05T18:18:00.000Z,98408
2019-05-05T18:23:00.000Z,98416
2019-05-05T18:28:00.000Z,98426
2019-05-05T18:33:00.000Z,98417
2019-05-05T18:38:00.000Z,98431
2019-05-05T18:43:00.000Z,98436
2019-05-05T18:48:00.000Z,98442
2019-05-05T18:53:00.000Z,98442
2019-05-05T18:58:00.000Z,98436
2019-05-05T19:03:00.000Z,98447
2019-05-05T19:08:00.000Z,98461
2019-05-05T19:13:00.000Z,98471
2019-05-05T19:18:00.000Z,98466
2019-05-05T19:23:00.000Z,98463
2019-05-05T19:28:00.000Z,98456
2019-05-05T19:33:00.000Z,98457
2019-05-05T19:38:00.000Z,98457
2019-05-05T19:43:00.000Z,98466
2019-05-05T19:48:00.000Z,98457
2019-05-05T19:53:00.000Z,98460
2019-05-05T19:58:00.000Z,98467
2019-05-05T20:04:00.000Z,98462
2019-05-05T20:09:00.000Z,98462
2019-05-05T20:14:00.000Z,98466
2019-05-05T20:19:00.000Z,98461
2019-05-05T20:24:00.000Z,98455
2019-05-05T20:29:00.000Z,98455
2019-05-05T20:34:00.000Z,98456
2019-05-05T20:39:00.000Z,98452
2019-05-05T20:44:00.000Z,98453
2019-05-05T20:49:00.000Z,98441
2019-05-05T20:54:00.000Z,98443
2019-05-05T20:59:00.000Z,98452
2019-05-05T21:04:00.000Z,98449
2019-05-05T21:09:00.000Z,98458
2019-05-05T21:14:00.000Z,98447
2019-05-05T21:19:00.000Z,98439
2019-05-05T21:24:00.000Z,98449
2019-05-05T21:29:00.000Z,98440
2019-05-05T21:34:00.000Z,98439
2019-05-05T21:39:00.000Z,98440
2019-05-05T21:44:00.000Z,98427
2019-05-05T21:49:00.000Z,98413
2019-05-05T21:54:00.000Z,98410
2019-05-05T21:59:00.000Z,98420
2019-05-05T22:04:00.000Z,98410
2019-05-05T22:09:00.000Z,98424
2019-05-05T22:15:00.000Z,98425
2019-05-05T22:20:00.000Z,98420
2019-05-05T22:25:00.000Z,98423
2019-05-05T22:30:00.000Z,98407
2019-05-05T22:35:00.000Z,98407
2019-05-05T22:40:00.000Z,98408
2019-05-05T22:45:00.000Z,98415
2019-05-05T22:50:00.000Z,98408
2019-05-05T22:55:00.000Z,98412
2019-05-05T23:00:00.000Z,98408
2019-05-05T23:05:00.000Z,98409
2019-05-05T23:10:00.000Z,98415
2019-05-05T23:15:00.000Z,98414
2019-05-05T23:20:00.000Z,98413
2019-05-05T23:25:00.000Z,98419
2019-05-05T23:30:00.000Z,98415
2019-05-05T23:35:00.000Z,98418
2019-05-05T23:40:00.000Z,98416
2019-05-05T23:45:00.000Z,98409
2019-05-05T23:50:00.000Z,98414
2019-05-05T23:55:00.000Z,98407
